Time;durP1;ratioP1;P1;durP2;ratioP2;P2;SDS_P1;SDS_P2;PMS_P1;PMS_P2;Temp;Humidity;BMP_temperature;BMP_pressure;BME280_temperature;BME280_humidity;BME280_pressure;Samples;Min_cycle;Max_cycle;Signal;HPM_P1;HPM_P2
2023/05/28 00:00:46;;;;;;;31.30;11.27;;;;;;;;;;6311570;28;20106;-58
2023/05/28 00:04:07;;;;;;;22.58;9.48;;;;;;;;;;6309400;28;20048;-53
2023/05/28 00:07:10;;;;;;;25.33;10.15;;;;;;;;;;6314521;28;20517;-55
2023/05/28 00:10:11;;;;;;;21.25;10.02;;;;;;;;;;6309866;28;20077;-51
2023/05/28 00:13:11;;;;;;;22.27;10.10;;;;;;;;;;6304962;28;20045;-56
2023/05/28 00:16:12;;;;;;;23.05;9.40;;;;;;;;;;6302658;28;20435;-57
2023/05/28 00:19:13;;;;;;;21.40;9.17;;;;;;;;;;6307829;28;20039;-54
2023/05/28 00:22:14;;;;;;;23.42;9.85;;;;;;;;;;6307360;28;20425;-53
2023/05/28 00:25:15;;;;;;;23.13;9.95;;;;;;;;;;6310535;28;20135;-52
2023/05/28 00:28:15;;;;;;;27.88;9.18;;;;;;;;;;6314619;28;20513;-58
2023/05/28 00:31:16;;;;;;;25.80;9.48;;;;;;;;;;6308877;28;20318;-54
2023/05/28 00:34:16;;;;;;;28.25;9.93;;;;;;;;;;6308460;28;20051;-58
2023/05/28 00:37:17;;;;;;;23.92;9.10;;;;;;;;;;6308111;28;20058;-57
2023/05/28 00:40:18;;;;;;;21.02;8.68;;;;;;;;;;6302159;28;20044;-55
2023/05/28 00:43:19;;;;;;;20.95;9.07;;;;;;;;;;6310729;28;20048;-56
2023/05/28 00:46:22;;;;;;;23.42;9.30;;;;;;;;;;6306072;28;20044;-52
2023/05/28 00:49:23;;;;;;;26.40;8.82;;;;;;;;;;6309884;28;20047;-54
2023/05/28 00:52:24;;;;;;;25.13;9.43;;;;;;;;;;6306851;28;20415;-51
2023/05/28 00:55:25;;;;;;;23.75;9.05;;;;;;;;;;6308936;28;20044;-58
2023/05/28 00:58:26;;;;;;;23.33;9.27;;;;;;;;;;6306932;28;20052;-53
2023/05/28 01:01:27;;;;;;;26.75;9.55;;;;;;;;;;6305373;28;20040;-56
2023/05/28 01:04:31;;;;;;;25.38;9.43;;;;;;;;;;6308354;28;20040;-50
2023/05/28 01:07:32;;;;;;;27.95;10.20;;;;;;;;;;6308071;28;20050;-56
2023/05/28 01:10:34;;;;;;;29.60;9.10;;;;;;;;;;6304611;28;20466;-54
2023/05/28 01:13:35;;;;;;;25.80;9.15;;;;;;;;;;6300968;28;20048;-58
2023/05/28 01:16:36;;;;;;;36.17;10.70;;;;;;;;;;6299403;28;20166;-59
2023/05/28 01:19:37;;;;;;;25.40;9.32;;;;;;;;;;6306829;28;20094;-56
2023/05/28 01:22:38;;;;;;;23.70;9.68;;;;;;;;;;6307018;28;20048;-55
2023/05/28 01:25:39;;;;;;;28.42;9.20;;;;;;;;;;6305620;28;20052;-57
2023/05/28 01:28:44;;;;;;;26.95;9.32;;;;;;;;;;6307175;28;20410;-55
2023/05/28 01:31:45;;;;;;;25.05;9.57;;;;;;;;;;6308451;28;20137;-56
2023/05/28 01:34:45;;;;;;;24.67;9.18;;;;;;;;;;6307246;28;20051;-58
2023/05/28 01:37:53;;;;;;;27.38;9.50;;;;;;;;;;6305358;28;20427;-52
2023/05/28 01:40:55;;;;;;;24.55;9.48;;;;;;;;;;6305187;28;20048;-58
2023/05/28 01:43:56;;;;;;;27.33;9.52;;;;;;;;;;6307330;28;20449;-57
2023/05/28 01:46:57;;;;;;;26.70;9.77;;;;;;;;;;6307174;28;20051;-58
2023/05/28 01:49:58;;;;;;;28.58;8.82;;;;;;;;;;6309345;28;20043;-57
2023/05/28 01:52:59;;;;;;;23.00;9.13;;;;;;;;;;6309207;28;20044;-55
2023/05/28 01:56:01;;;;;;;27.05;8.85;;;;;;;;;;6308033;28;20052;-53
2023/05/28 01:59:02;;;;;;;25.13;9.10;;;;;;;;;;6306850;28;20044;-57
2023/05/28 02:02:04;;;;;;;25.73;9.07;;;;;;;;;;6306669;28;20112;-49
2023/05/28 02:05:05;;;;;;;20.83;7.70;;;;;;;;;;6306476;28;20123;-59
2023/05/28 02:08:06;;;;;;;23.30;8.35;;;;;;;;;;6307574;28;20044;-59
2023/05/28 02:11:07;;;;;;;24.58;9.25;;;;;;;;;;6306069;28;20055;-58
2023/05/28 02:14:14;;;;;;;26.85;9.02;;;;;;;;;;6305051;28;20805;-57
2023/05/28 02:17:17;;;;;;;25.80;9.07;;;;;;;;;;6306436;28;20410;-58
2023/05/28 02:20:18;;;;;;;26.85;8.80;;;;;;;;;;6305568;28;20054;-57
2023/05/28 02:23:18;;;;;;;25.08;9.40;;;;;;;;;;6307859;28;20491;-57
2023/05/28 02:26:20;;;;;;;24.88;8.13;;;;;;;;;;6306302;28;21177;-54
2023/05/28 02:29:20;;;;;;;22.57;8.23;;;;;;;;;;6307236;28;20501;-56
2023/05/28 02:32:21;;;;;;;19.17;7.78;;;;;;;;;;6306746;28;20043;-49
2023/05/28 02:35:22;;;;;;;23.02;8.30;;;;;;;;;;6307334;28;20044;-56
2023/05/28 02:38:23;;;;;;;24.10;7.53;;;;;;;;;;6306862;28;20044;-56
2023/05/28 02:41:23;;;;;;;22.00;7.97;;;;;;;;;;6308143;28;20487;-54
2023/05/28 02:44:24;;;;;;;26.45;9.73;;;;;;;;;;6292945;28;20078;-57
2023/05/28 02:47:25;;;;;;;27.48;8.18;;;;;;;;;;6307904;28;20401;-56
2023/05/28 02:50:25;;;;;;;21.85;7.40;;;;;;;;;;6307550;28;20090;-58
2023/05/28 02:53:29;;;;;;;24.52;8.20;;;;;;;;;;6306700;28;20052;-55
2023/05/28 02:56:30;;;;;;;24.95;8.90;;;;;;;;;;6306621;28;20092;-51
2023/05/28 02:59:30;;;;;;;20.08;7.65;;;;;;;;;;6308591;28;20494;-57
2023/05/28 03:02:31;;;;;;;20.80;7.93;;;;;;;;;;6306950;28;20074;-57
2023/05/28 03:05:32;;;;;;;23.48;8.05;;;;;;;;;;6307722;28;20141;-56
2023/05/28 03:08:33;;;;;;;22.73;8.53;;;;;;;;;;6306357;28;20036;-56
2023/05/28 03:11:33;;;;;;;26.10;7.72;;;;;;;;;;6306564;28;20043;-56
2023/05/28 03:14:34;;;;;;;22.73;7.30;;;;;;;;;;6306979;28;20536;-54
2023/05/28 03:17:34;;;;;;;20.42;7.68;;;;;;;;;;6305368;28;20299;-58
2023/05/28 03:20:35;;;;;;;22.45;7.47;;;;;;;;;;6305108;28;20050;-56
2023/05/28 03:23:35;;;;;;;21.95;7.97;;;;;;;;;;6304128;28;20059;-53
2023/05/28 03:26:37;;;;;;;25.33;8.70;;;;;;;;;;6305718;28;20380;-55
2023/05/28 03:29:37;;;;;;;20.70;6.95;;;;;;;;;;6306024;28;20056;-55
2023/05/28 03:32:38;;;;;;;21.85;7.43;;;;;;;;;;6305838;28;20125;-53
2023/05/28 03:35:39;;;;;;;23.10;6.95;;;;;;;;;;6307278;28;20090;-56
2023/05/28 03:38:39;;;;;;;23.17;6.78;;;;;;;;;;6308757;28;20043;-52
2023/05/28 03:41:40;;;;;;;17.52;6.45;;;;;;;;;;6311709;28;20044;-58
2023/05/28 03:44:40;;;;;;;21.67;6.80;;;;;;;;;;6293082;28;20044;-53
2023/05/28 03:47:41;;;;;;;24.02;7.28;;;;;;;;;;6310135;28;20047;-56
2023/05/28 03:50:42;;;;;;;23.67;7.53;;;;;;;;;;6310272;28;20471;-57
2023/05/28 03:53:42;;;;;;;22.10;7.13;;;;;;;;;;6310043;28;20044;-48
2023/05/28 03:56:43;;;;;;;21.20;7.05;;;;;;;;;;6310828;28;20047;-49
2023/05/28 03:59:43;;;;;;;20.55;7.53;;;;;;;;;;6309864;28;20449;-48
2023/05/28 04:02:44;;;;;;;17.77;6.28;;;;;;;;;;6311063;28;20097;-51
2023/05/28 04:05:45;;;;;;;21.40;7.50;;;;;;;;;;6310268;28;20428;-56
2023/05/28 04:08:47;;;;;;;21.75;6.30;;;;;;;;;;6308858;28;20048;-56
2023/05/28 04:11:47;;;;;;;20.38;6.68;;;;;;;;;;6309888;28;20044;-55
2023/05/28 04:14:48;;;;;;;19.10;6.28;;;;;;;;;;6309909;28;20052;-51
2023/05/28 04:17:49;;;;;;;18.00;6.95;;;;;;;;;;6306640;28;20047;-56
2023/05/28 04:20:49;;;;;;;19.27;5.85;;;;;;;;;;6306247;28;20131;-58
2023/05/28 04:23:51;;;;;;;21.15;6.32;;;;;;;;;;6309685;28;20051;-57
2023/05/28 04:26:51;;;;;;;20.65;6.30;;;;;;;;;;6308938;28;20048;-54
2023/05/28 04:29:54;;;;;;;20.77;6.28;;;;;;;;;;6313037;28;20046;-57
2023/05/28 04:32:56;;;;;;;17.00;6.70;;;;;;;;;;6309264;28;20063;-58
2023/05/28 04:35:58;;;;;;;23.95;7.57;;;;;;;;;;6318743;28;20639;-58
2023/05/28 04:39:01;;;;;;;21.33;6.32;;;;;;;;;;6309389;28;20479;-50
2023/05/28 04:42:03;;;;;;;17.02;5.93;;;;;;;;;;6308970;28;20116;-56
2023/05/28 04:45:04;;;;;;;17.65;6.32;;;;;;;;;;6310007;28;20048;-51
2023/05/28 04:48:06;;;;;;;28.17;6.97;;;;;;;;;;6306982;28;20040;-55
2023/05/28 04:51:07;;;;;;;23.23;6.70;;;;;;;;;;6307157;28;20044;-50
2023/05/28 04:54:07;;;;;;;16.63;5.70;;;;;;;;;;6310121;28;20036;-56
2023/05/28 04:57:08;;;;;;;23.48;7.63;;;;;;;;;;6313097;28;20044;-47
2023/05/28 05:00:12;;;;;;;19.83;6.18;;;;;;;;;;6312287;28;20044;-54
2023/05/28 05:03:14;;;;;;;20.25;6.15;;;;;;;;;;6309850;28;20738;-57
2023/05/28 05:06:15;;;;;;;23.40;6.30;;;;;;;;;;6306063;28;22033;-56
2023/05/28 05:09:16;;;;;;;17.58;7.10;;;;;;;;;;6306461;28;20054;-47
2023/05/28 05:12:16;;;;;;;21.45;6.38;;;;;;;;;;6305986;28;20044;-54
2023/05/28 05:15:17;;;;;;;20.45;5.88;;;;;;;;;;6308387;28;20410;-51
2023/05/28 05:18:18;;;;;;;15.68;5.43;;;;;;;;;;6305492;28;20548;-58
2023/05/28 05:21:18;;;;;;;17.60;5.55;;;;;;;;;;6305599;28;20440;-57
2023/05/28 05:24:19;;;;;;;16.73;5.55;;;;;;;;;;6307149;28;20127;-56
2023/05/28 05:27:20;;;;;;;16.70;4.97;;;;;;;;;;6306696;28;20044;-47
2023/05/28 05:30:20;;;;;;;16.25;5.28;;;;;;;;;;6304892;28;20055;-55
2023/05/28 05:33:21;;;;;;;18.88;5.65;;;;;;;;;;6305804;28;20391;-57
2023/05/28 05:36:21;;;;;;;19.83;6.95;;;;;;;;;;6303627;28;20036;-48
2023/05/28 05:39:22;;;;;;;18.10;5.95;;;;;;;;;;6307321;28;20071;-56
2023/05/28 05:42:23;;;;;;;18.92;5.30;;;;;;;;;;6307256;28;20433;-48
2023/05/28 05:45:23;;;;;;;18.90;5.63;;;;;;;;;;6307906;28;20489;-53
2023/05/28 05:48:27;;;;;;;13.10;5.13;;;;;;;;;;6306370;28;20559;-48
2023/05/28 05:51:28;;;;;;;17.75;5.60;;;;;;;;;;6307043;28;20044;-55
2023/05/28 05:54:28;;;;;;;17.88;5.85;;;;;;;;;;6309146;28;20051;-56
2023/05/28 05:57:29;;;;;;;14.15;4.45;;;;;;;;;;6310530;28;20051;-49
2023/05/28 06:00:29;;;;;;;15.13;5.13;;;;;;;;;;6303428;28;20126;-49
2023/05/28 06:03:30;;;;;;;13.75;4.40;;;;;;;;;;6304333;28;20110;-51
2023/05/28 06:06:31;;;;;;;15.93;5.13;;;;;;;;;;6303931;28;20609;-52
2023/05/28 06:09:32;;;;;;;16.13;5.80;;;;;;;;;;6302749;28;20070;-48
2023/05/28 06:12:33;;;;;;;16.40;4.95;;;;;;;;;;6305386;28;20068;-49
2023/05/28 06:15:34;;;;;;;16.35;4.90;;;;;;;;;;6305520;28;20079;-54
2023/05/28 06:18:35;;;;;;;18.90;4.90;;;;;;;;;;6307003;28;20047;-51
2023/05/28 06:21:36;;;;;;;11.32;4.32;;;;;;;;;;6307363;28;20036;-53
2023/05/28 06:24:38;;;;;;;13.90;4.57;;;;;;;;;;6304756;28;20112;-55
2023/05/28 06:27:39;;;;;;;11.65;4.05;;;;;;;;;;6304569;28;20044;-51
2023/05/28 06:30:40;;;;;;;17.30;5.22;;;;;;;;;;6304457;28;20383;-56
2023/05/28 06:33:40;;;;;;;14.23;3.85;;;;;;;;;;6307704;28;20160;-56
2023/05/28 06:36:41;;;;;;;13.30;4.60;;;;;;;;;;6307368;28;20786;-52
2023/05/28 06:39:42;;;;;;;9.00;3.40;;;;;;;;;;6305675;28;20055;-50
2023/05/28 06:42:42;;;;;;;11.85;3.70;;;;;;;;;;6308023;28;20484;-48
2023/05/28 06:45:43;;;;;;;9.90;3.28;;;;;;;;;;6307843;28;20467;-53
2023/05/28 06:48:43;;;;;;;10.77;3.33;;;;;;;;;;6310598;28;20044;-57
2023/05/28 06:51:45;;;;;;;8.98;3.40;;;;;;;;;;6303092;28;20166;-52
2023/05/28 06:54:45;;;;;;;7.65;3.60;;;;;;;;;;6304965;28;20086;-55
2023/05/28 06:57:46;;;;;;;13.70;4.30;;;;;;;;;;6305907;28;20062;-56
2023/05/28 07:00:46;;;;;;;12.45;3.50;;;;;;;;;;6303955;28;20043;-50
2023/05/28 07:03:47;;;;;;;7.53;3.40;;;;;;;;;;6304918;28;20036;-52
2023/05/28 07:06:48;;;;;;;12.70;3.35;;;;;;;;;;6304699;28;20048;-50
2023/05/28 07:09:49;;;;;;;9.45;3.20;;;;;;;;;;6306241;28;20620;-52
2023/05/28 07:12:49;;;;;;;7.75;3.50;;;;;;;;;;6308959;28;20040;-48
2023/05/28 07:15:50;;;;;;;12.73;3.60;;;;;;;;;;6311620;28;20153;-53
2023/05/28 07:18:50;;;;;;;8.27;3.25;;;;;;;;;;6311484;28;20040;-49
2023/05/28 07:21:51;;;;;;;8.63;3.40;;;;;;;;;;6310330;28;20127;-57
2023/05/28 07:24:52;;;;;;;13.18;3.80;;;;;;;;;;6316536;28;20040;-56
2023/05/28 07:27:52;;;;;;;9.43;3.20;;;;;;;;;;6318418;28;20069;-52
2023/05/28 07:30:53;;;;;;;9.95;3.15;;;;;;;;;;6318599;28;20054;-47
2023/05/28 07:33:54;;;;;;;9.15;2.88;;;;;;;;;;6319533;28;20151;-48
2023/05/28 07:36:55;;;;;;;12.82;3.17;;;;;;;;;;6319848;28;20135;-50
2023/05/28 07:39:56;;;;;;;10.82;3.03;;;;;;;;;;6318817;28;20040;-54
2023/05/28 07:42:56;;;;;;;8.18;2.85;;;;;;;;;;6319543;28;20039;-54
2023/05/28 07:45:57;;;;;;;11.32;3.28;;;;;;;;;;6315743;28;20059;-54
2023/05/28 07:48:58;;;;;;;13.10;3.35;;;;;;;;;;6309747;28;20380;-51
2023/05/28 07:51:58;;;;;;;8.10;2.88;;;;;;;;;;6319264;28;20079;-57
2023/05/28 07:54:59;;;;;;;11.77;3.63;;;;;;;;;;6319713;28;20044;-58
2023/05/28 07:58:00;;;;;;;8.20;3.07;;;;;;;;;;6318409;28;20051;-60
2023/05/28 08:01:01;;;;;;;9.82;3.50;;;;;;;;;;6318732;28;20058;-54
2023/05/28 08:04:02;;;;;;;9.43;2.80;;;;;;;;;;6317749;28;20051;-49
2023/05/28 08:07:03;;;;;;;7.93;2.50;;;;;;;;;;6318090;28;20589;-59
2023/05/28 08:10:04;;;;;;;12.52;3.00;;;;;;;;;;6318127;28;20040;-57
2023/05/28 08:13:05;;;;;;;9.95;3.42;;;;;;;;;;6318144;28;20399;-56
2023/05/28 08:16:06;;;;;;;5.10;2.67;;;;;;;;;;6315503;28;20052;-58
2023/05/28 08:19:06;;;;;;;13.18;2.80;;;;;;;;;;6318464;28;20487;-56
2023/05/28 08:22:07;;;;;;;7.57;2.65;;;;;;;;;;6317395;28;20055;-55
2023/05/28 08:25:08;;;;;;;9.68;2.90;;;;;;;;;;6318327;28;20114;-59
2023/05/28 08:28:09;;;;;;;15.65;3.38;;;;;;;;;;6318607;28;20059;-58
2023/05/28 08:31:10;;;;;;;9.10;3.45;;;;;;;;;;6315192;28;20074;-49
2023/05/28 08:34:11;;;;;;;9.18;2.97;;;;;;;;;;6294203;28;20040;-59
2023/05/28 08:37:12;;;;;;;10.40;2.92;;;;;;;;;;6309036;28;20057;-59
2023/05/28 08:40:14;;;;;;;7.45;3.10;;;;;;;;;;6307970;28;20487;-56
2023/05/28 08:43:14;;;;;;;11.70;2.93;;;;;;;;;;6298361;28;20097;-54
2023/05/28 08:46:15;;;;;;;7.63;2.53;;;;;;;;;;6306726;28;20052;-58
2023/05/28 08:49:20;;;;;;;9.73;3.20;;;;;;;;;;6309301;28;20043;-59
2023/05/28 08:52:24;;;;;;;7.57;2.75;;;;;;;;;;6308058;28;20040;-58
2023/05/28 08:55:24;;;;;;;10.75;2.83;;;;;;;;;;6309113;28;20070;-55
2023/05/28 08:58:25;;;;;;;7.70;2.80;;;;;;;;;;6309188;28;20048;-58
2023/05/28 09:01:26;;;;;;;10.07;3.30;;;;;;;;;;6308311;28;20070;-58
2023/05/28 09:04:26;;;;;;;10.83;3.13;;;;;;;;;;6309156;28;20040;-58
2023/05/28 09:07:27;;;;;;;11.77;3.00;;;;;;;;;;6309190;28;20706;-60
2023/05/28 09:10:28;;;;;;;11.13;2.97;;;;;;;;;;6307263;28;20519;-55
2023/05/28 09:13:28;;;;;;;10.13;3.17;;;;;;;;;;6308485;28;20044;-56
2023/05/28 09:16:29;;;;;;;10.63;2.85;;;;;;;;;;6306728;28;20052;-58
2023/05/28 09:19:30;;;;;;;9.50;3.70;;;;;;;;;;6305614;28;20131;-56
2023/05/28 09:22:31;;;;;;;10.25;3.08;;;;;;;;;;6307182;28;20048;-59
2023/05/28 09:25:36;;;;;;;12.70;2.77;;;;;;;;;;6308980;28;20548;-56
2023/05/28 09:28:41;;;;;;;7.25;2.67;;;;;;;;;;6306577;28;20044;-58
2023/05/28 09:31:42;;;;;;;10.00;3.10;;;;;;;;;;6303389;28;20051;-58
2023/05/28 09:34:43;;;;;;;7.37;2.83;;;;;;;;;;6307857;28;20039;-58
2023/05/28 09:37:44;;;;;;;10.15;3.20;;;;;;;;;;6308810;28;20175;-56
2023/05/28 09:40:45;;;;;;;10.30;2.87;;;;;;;;;;6308347;28;20741;-57
2023/05/28 09:43:46;;;;;;;8.67;3.10;;;;;;;;;;6307528;28;20570;-58
2023/05/28 09:46:47;;;;;;;10.27;3.55;;;;;;;;;;6306535;28;20101;-54
2023/05/28 09:49:49;;;;;;;7.20;3.30;;;;;;;;;;6307545;28;20036;-58
2023/05/28 09:52:54;;;;;;;10.70;3.03;;;;;;;;;;6307646;28;20445;-59
2023/05/28 09:55:58;;;;;;;9.10;4.00;;;;;;;;;;6308152;28;20048;-56
2023/05/28 09:59:01;;;;;;;8.02;3.00;;;;;;;;;;6307651;28;20113;-58
2023/05/28 10:02:32;;;;;;;11.18;3.28;;;;;;;;;;6303843;28;20526;-58
2023/05/28 10:05:34;;;;;;;8.02;2.95;;;;;;;;;;6307094;28;20487;-58
2023/05/28 10:08:37;;;;;;;13.07;3.28;;;;;;;;;;6305565;28;20713;-51
2023/05/28 10:11:43;;;;;;;6.53;2.80;;;;;;;;;;6307468;28;20131;-59
2023/05/28 10:14:46;;;;;;;11.15;3.33;;;;;;;;;;6307244;28;20063;-59
2023/05/28 10:17:50;;;;;;;10.93;3.30;;;;;;;;;;6305371;28;20044;-58
2023/05/28 10:20:51;;;;;;;7.90;2.72;;;;;;;;;;6308004;28;20071;-58
2023/05/28 10:23:52;;;;;;;9.57;3.80;;;;;;;;;;6304820;28;20380;-54
2023/05/28 10:26:54;;;;;;;9.37;3.63;;;;;;;;;;6297087;28;20045;-54
2023/05/28 10:29:55;;;;;;;;;;;;;;;;;;6295256;28;20076;-57
2023/05/28 10:32:56;;;;;;;11.90;3.38;;;;;;;;;;6297772;28;19927;-54
2023/05/28 10:35:59;;;;;;;8.52;3.22;;;;;;;;;;6295052;28;20071;-61
2023/05/28 10:38:59;;;;;;;8.73;2.88;;;;;;;;;;6301882;28;20035;-51
2023/05/28 10:42:00;;;;;;;11.80;3.10;;;;;;;;;;6296481;28;20055;-58
2023/05/28 10:45:03;;;;;;;9.10;3.60;;;;;;;;;;6301301;28;20060;-56
2023/05/28 10:48:05;;;;;;;7.88;2.92;;;;;;;;;;6305362;28;20048;-57
2023/05/28 10:51:06;;;;;;;8.32;3.05;;;;;;;;;;6303825;28;20049;-57
2023/05/28 10:54:22;;;;;;;9.93;3.20;;;;;;;;;;6303354;28;20055;-49
2023/05/28 10:57:23;;;;;;;10.18;3.10;;;;;;;;;;6306833;28;20551;-51
2023/05/28 11:00:24;;;;;;;8.43;3.30;;;;;;;;;;6280639;28;20048;-54
2023/05/28 11:03:40;;;;;;;7.95;3.38;;;;;;;;;;6286170;28;20044;-55
2023/05/28 11:06:45;;;;;;;10.05;3.13;;;;;;;;;;6283201;28;20406;-49
2023/05/28 11:09:50;;;;;;;11.05;3.60;;;;;;;;;;6282563;28;20056;-55
2023/05/28 11:12:51;;;;;;;7.32;3.03;;;;;;;;;;6282801;28;20048;-51
2023/05/28 11:15:52;;;;;;;10.07;3.53;;;;;;;;;;6286688;28;21218;-58
2023/05/28 11:19:01;;;;;;;8.13;3.40;;;;;;;;;;6283089;28;20084;-58
2023/05/28 11:22:03;;;;;;;11.27;4.25;;;;;;;;;;6285343;28;20502;-48
2023/05/28 11:25:08;;;;;;;9.17;3.30;;;;;;;;;;6285228;28;20113;-49
2023/05/28 11:28:09;;;;;;;13.65;3.88;;;;;;;;;;6282711;28;20055;-52
2023/05/28 11:31:10;;;;;;;8.10;3.00;;;;;;;;;;6284515;28;20816;-51
2023/05/28 11:34:10;;;;;;;7.40;3.63;;;;;;;;;;6287700;28;20049;-57
2023/05/28 11:37:11;;;;;;;11.03;3.50;;;;;;;;;;6286499;28;20048;-50
2023/05/28 11:40:14;;;;;;;8.50;3.67;;;;;;;;;;6281549;28;20301;-55
2023/05/28 11:43:14;;;;;;;8.73;3.28;;;;;;;;;;6283921;28;20145;-51
2023/05/28 11:46:15;;;;;;;9.80;3.23;;;;;;;;;;6283507;28;20091;-49
2023/05/28 11:49:16;;;;;;;12.70;3.40;;;;;;;;;;6278132;28;20058;-50
2023/05/28 11:52:19;;;;;;;10.40;3.57;;;;;;;;;;6285673;28;20048;-55
2023/05/28 11:55:20;;;;;;;11.45;3.15;;;;;;;;;;6286900;28;20150;-53
2023/05/28 11:58:30;;;;;;;14.60;3.90;;;;;;;;;;6280873;28;20106;-57
2023/05/28 12:01:34;;;;;;;10.95;3.55;;;;;;;;;;6285729;28;20052;-57
2023/05/28 12:04:34;;;;;;;12.65;3.40;;;;;;;;;;6270942;28;20048;-55
2023/05/28 12:07:36;;;;;;;9.97;3.30;;;;;;;;;;6282705;28;20147;-55
2023/05/28 12:10:36;;;;;;;10.57;3.90;;;;;;;;;;6277899;28;20045;-58
2023/05/28 12:13:38;;;;;;;9.33;4.67;;;;;;;;;;6281970;28;20043;-52
2023/05/28 12:16:46;;;;;;;11.55;4.60;;;;;;;;;;6281571;28;21074;-53
2023/05/28 12:19:46;;;;;;;10.65;4.38;;;;;;;;;;6279119;28;20063;-52
2023/05/28 12:23:03;;;;;;;10.03;3.97;;;;;;;;;;6281178;28;20052;-53
2023/05/28 12:26:09;;;;;;;9.40;4.03;;;;;;;;;;6282896;28;20052;-54
2023/05/28 12:29:10;;;;;;;11.68;4.07;;;;;;;;;;6282310;28;20056;-54
2023/05/28 12:32:11;;;;;;;11.40;4.03;;;;;;;;;;6284070;28;20059;-58
2023/05/28 12:35:12;;;;;;;10.20;3.80;;;;;;;;;;6286016;28;20087;-50
2023/05/28 12:38:14;;;;;;;11.70;3.90;;;;;;;;;;6283569;28;20040;-58
2023/05/28 12:41:14;;;;;;;14.98;4.18;;;;;;;;;;6285081;28;20135;-51
2023/05/28 12:44:15;;;;;;;8.47;3.70;;;;;;;;;;6284200;28;20704;-59
2023/05/28 12:47:16;;;;;;;12.30;3.70;;;;;;;;;;6284741;28;20044;-53
2023/05/28 12:50:16;;;;;;;9.13;3.57;;;;;;;;;;6282111;28;20043;-49
2023/05/28 12:53:17;;;;;;;8.77;3.50;;;;;;;;;;6285968;28;20048;-55
2023/05/28 12:56:18;;;;;;;13.10;4.70;;;;;;;;;;6286895;28;20075;-59
2023/05/28 12:59:28;;;;;;;13.90;4.10;;;;;;;;;;6282051;28;20048;-59
2023/05/28 13:02:29;;;;;;;9.35;4.20;;;;;;;;;;6280625;28;20098;-56
2023/05/28 13:05:33;;;;;;;17.83;4.10;;;;;;;;;;6282791;28;20384;-48
2023/05/28 13:08:34;;;;;;;10.88;4.07;;;;;;;;;;6281509;28;20052;-55
2023/05/28 13:11:39;;;;;;;12.10;4.13;;;;;;;;;;6282482;28;20059;-59
2023/05/28 13:14:40;;;;;;;9.88;3.83;;;;;;;;;;6281493;28;20056;-48
2023/05/28 13:17:41;;;;;;;8.97;3.63;;;;;;;;;;6282207;28;20040;-55
2023/05/28 13:20:41;;;;;;;11.77;3.80;;;;;;;;;;6283016;28;20079;-53
2023/05/28 13:23:42;;;;;;;9.47;4.03;;;;;;;;;;6276438;28;20406;-54
2023/05/28 13:26:43;;;;;;;9.73;4.30;;;;;;;;;;6278165;28;20048;-54
2023/05/28 13:29:43;;;;;;;12.57;4.23;;;;;;;;;;6279561;28;20050;-55
2023/05/28 13:32:44;;;;;;;9.67;4.50;;;;;;;;;;6278726;28;20434;-57
2023/05/28 13:35:44;;;;;;;10.60;3.83;;;;;;;;;;6278924;28;20039;-55
2023/05/28 13:38:47;;;;;;;11.00;4.40;;;;;;;;;;6279932;28;20488;-53
2023/05/28 13:41:51;;;;;;;13.30;4.13;;;;;;;;;;6281845;28;20040;-55
2023/05/28 13:44:52;;;;;;;8.93;3.60;;;;;;;;;;6282538;28;20050;-58
2023/05/28 13:47:53;;;;;;;11.93;4.20;;;;;;;;;;6281363;28;20487;-56
2023/05/28 13:50:53;;;;;;;9.17;3.97;;;;;;;;;;6284625;28;20052;-55
2023/05/28 13:53:54;;;;;;;11.10;4.13;;;;;;;;;;6282091;28;20305;-57
2023/05/28 13:56:55;;;;;;;12.27;3.97;;;;;;;;;;6282836;28;20048;-57
2023/05/28 13:59:56;;;;;;;12.73;4.67;;;;;;;;;;6280506;28;20549;-58
2023/05/28 14:02:56;;;;;;;12.98;4.60;;;;;;;;;;6281542;28;20062;-57
2023/05/28 14:05:58;;;;;;;11.10;4.97;;;;;;;;;;6281102;28;20616;-57
2023/05/28 14:08:59;;;;;;;10.23;3.88;;;;;;;;;;6281032;28;20635;-55
2023/05/28 14:12:01;;;;;;;10.65;4.55;;;;;;;;;;6282277;28;20091;-57
2023/05/28 14:15:03;;;;;;;15.40;4.53;;;;;;;;;;6282706;28;20052;-56
2023/05/28 14:18:03;;;;;;;9.40;3.85;;;;;;;;;;6279124;28;20059;-57
2023/05/28 14:21:06;;;;;;;9.43;3.80;;;;;;;;;;6281760;28;20052;-59
2023/05/28 14:24:07;;;;;;;10.73;3.85;;;;;;;;;;6280308;28;20045;-59
2023/05/28 14:27:09;;;;;;;11.10;4.20;;;;;;;;;;6282459;28;20594;-56
2023/05/28 14:30:10;;;;;;;7.82;3.78;;;;;;;;;;6279279;28;20037;-56
2023/05/28 14:33:11;;;;;;;7.65;3.70;;;;;;;;;;6279289;28;20137;-59
2023/05/28 14:36:12;;;;;;;14.00;4.73;;;;;;;;;;6282451;28;20048;-53
2023/05/28 14:39:13;;;;;;;10.77;3.60;;;;;;;;;;6280579;28;20075;-48
2023/05/28 14:42:13;;;;;;;8.77;3.97;;;;;;;;;;6279529;28;20048;-58
2023/05/28 14:45:15;;;;;;;10.40;4.10;;;;;;;;;;6281145;28;20157;-59
2023/05/28 14:48:15;;;;;;;9.73;4.43;;;;;;;;;;6279982;28;20086;-56
2023/05/28 14:51:16;;;;;;;12.73;3.90;;;;;;;;;;6280888;28;20048;-55
2023/05/28 14:54:17;;;;;;;10.43;3.70;;;;;;;;;;6279936;28;20407;-55
2023/05/28 14:57:19;;;;;;;12.93;3.80;;;;;;;;;;6277753;28;20545;-55
2023/05/28 15:00:20;;;;;;;10.73;4.20;;;;;;;;;;6275753;28;20064;-58
2023/05/28 15:03:21;;;;;;;9.48;3.72;;;;;;;;;;6279336;28;20131;-56
2023/05/28 15:06:21;;;;;;;10.43;3.37;;;;;;;;;;6280214;28;20626;-51
2023/05/28 15:09:22;;;;;;;10.60;3.77;;;;;;;;;;6278731;28;20583;-54
2023/05/28 15:12:23;;;;;;;11.67;3.87;;;;;;;;;;6281781;28;20049;-57
2023/05/28 15:15:25;;;;;;;9.23;3.45;;;;;;;;;;6279214;28;20067;-48
2023/05/28 15:18:26;;;;;;;9.68;3.40;;;;;;;;;;6277454;28;20045;-56
2023/05/28 15:21:26;;;;;;;13.03;3.77;;;;;;;;;;6273517;28;20056;-53
2023/05/28 15:24:27;;;;;;;9.70;3.40;;;;;;;;;;6278838;28;20468;-56
2023/05/28 15:27:28;;;;;;;8.67;4.13;;;;;;;;;;6281389;28;20080;-55
2023/05/28 15:30:29;;;;;;;14.33;3.73;;;;;;;;;;6276219;28;20480;-57
2023/05/28 15:33:31;;;;;;;10.60;3.88;;;;;;;;;;6284395;28;20052;-56
2023/05/28 15:36:32;;;;;;;;;;;;;;;;;;6288086;28;20156;-59
2023/05/28 15:39:33;;;;;;;10.07;3.83;;;;;;;;;;6281203;28;20027;-55
2023/05/28 15:42:35;;;;;;;7.97;3.50;;;;;;;;;;6283526;28;20037;-60
2023/05/28 15:45:36;;;;;;;9.18;4.18;;;;;;;;;;6285409;28;20054;-55
2023/05/28 15:48:36;;;;;;;13.33;3.97;;;;;;;;;;6284861;28;20049;-57
2023/05/28 15:51:37;;;;;;;9.82;3.33;;;;;;;;;;6283996;28;20044;-57
2023/05/28 15:54:38;;;;;;;13.40;3.70;;;;;;;;;;6284316;28;20134;-58
2023/05/28 15:57:39;;;;;;;11.68;3.70;;;;;;;;;;6283389;28;20106;-59
2023/05/28 16:00:40;;;;;;;10.10;4.10;;;;;;;;;;6285023;28;20073;-57
2023/05/28 16:03:40;;;;;;;10.43;3.80;;;;;;;;;;6289653;28;20048;-55
2023/05/28 16:06:41;;;;;;;11.67;3.80;;;;;;;;;;6283977;28;20308;-57
2023/05/28 16:09:42;;;;;;;11.47;3.50;;;;;;;;;;6282285;28;20059;-54
2023/05/28 16:12:43;;;;;;;10.70;3.73;;;;;;;;;;6284261;28;20918;-53
2023/05/28 16:15:45;;;;;;;13.02;4.18;;;;;;;;;;6284334;28;20052;-54
2023/05/28 16:18:46;;;;;;;11.63;4.30;;;;;;;;;;6285616;28;20044;-51
2023/05/28 16:21:47;;;;;;;8.73;3.50;;;;;;;;;;6283501;28;20113;-48
2023/05/28 16:24:48;;;;;;;10.03;3.67;;;;;;;;;;6284038;28;20056;-51
2023/05/28 16:27:52;;;;;;;11.85;3.97;;;;;;;;;;6278065;28;20056;-57
2023/05/28 16:30:52;;;;;;;10.00;3.30;;;;;;;;;;6282777;28;20048;-52
2023/05/28 16:33:53;;;;;;;12.27;3.83;;;;;;;;;;6285038;28;20044;-50
2023/05/28 16:36:54;;;;;;;7.70;3.50;;;;;;;;;;6285210;28;20051;-49
2023/05/28 16:40:13;;;;;;;9.05;3.80;;;;;;;;;;6276745;28;20040;-59
2023/05/28 16:43:15;;;;;;;10.65;3.92;;;;;;;;;;6279558;28;20048;-57
2023/05/28 16:46:17;;;;;;;10.53;3.70;;;;;;;;;;6284848;28;20040;-55
2023/05/28 16:49:42;;;;;;;9.05;3.58;;;;;;;;;;6202181;28;20125;-57
2023/05/28 16:53:01;;;;;;;10.50;3.63;;;;;;;;;;6203246;28;20058;-51
2023/05/28 16:56:21;;;;;;;10.23;3.53;;;;;;;;;;6203769;28;20444;-56
2023/05/28 16:59:40;;;;;;;14.50;3.53;;;;;;;;;;6199916;28;20417;-48
2023/05/28 17:02:59;;;;;;;12.68;4.00;;;;;;;;;;6201020;28;20478;-54
2023/05/28 17:06:18;;;;;;;10.27;3.53;;;;;;;;;;6196582;28;20600;-50
2023/05/28 17:09:38;;;;;;;12.32;3.72;;;;;;;;;;6193914;28;20041;-56
2023/05/28 17:12:57;;;;;;;14.68;3.80;;;;;;;;;;6196360;28;20046;-50
2023/05/28 17:16:16;;;;;;;8.18;3.50;;;;;;;;;;6199247;28;20025;-50
2023/05/28 17:19:36;;;;;;;7.35;3.35;;;;;;;;;;6199546;28;20688;-57
2023/05/28 17:22:56;;;;;;;11.80;3.92;;;;;;;;;;6201081;28;20564;-58
2023/05/28 17:26:15;;;;;;;8.10;3.92;;;;;;;;;;6252569;28;20152;-54
2023/05/28 17:29:34;;;;;;;8.38;4.00;;;;;;;;;;6285275;28;20119;-57
2023/05/28 17:32:53;;;;;;;12.70;3.80;;;;;;;;;;6284675;28;20060;-53
2023/05/28 17:36:12;;;;;;;11.02;4.82;;;;;;;;;;6283593;28;20048;-52
2023/05/28 17:39:31;;;;;;;8.93;3.55;;;;;;;;;;6282554;28;20040;-56
2023/05/28 17:42:50;;;;;;;10.05;3.38;;;;;;;;;;6283311;28;20425;-49
2023/05/28 17:46:09;;;;;;;11.10;3.92;;;;;;;;;;6283062;28;20056;-57
2023/05/28 17:49:28;;;;;;;10.80;4.07;;;;;;;;;;6281506;28;20040;-55
2023/05/28 17:52:47;;;;;;;10.05;3.55;;;;;;;;;;6279801;28;20036;-57
2023/05/28 17:56:06;;;;;;;11.57;3.80;;;;;;;;;;6281984;28;20615;-55
2023/05/28 17:59:25;;;;;;;10.52;3.42;;;;;;;;;;6279189;28;20048;-53
2023/05/28 18:02:45;;;;;;;11.68;3.75;;;;;;;;;;6284521;28;20389;-61